sensor_id;sensor_type;location;lat;lon;timestamp;P1;durP1;ratioP1;P2;durP2;ratioP2
18893;SDS011;9579;49.488;8.226;2022-11-15T06:50:06;8.23;;;7.43;;
18893;SDS011;9579;49.488;8.226;2022-11-15T06:54:00;8.93;;;8.10;;
18893;SDS011;9579;49.488;8.226;2022-11-15T07:18:28;9.77;;;8.43;;
18893;SDS011;9579;49.488;8.226;2022-11-15T07:22:36;8.87;;;8.07;;
18893;SDS011;9579;49.488;8.226;2022-11-15T07:45:09;8.50;;;7.80;;
18893;SDS011;9579;49.488;8.226;2022-11-15T07:51:21;9.67;;;8.77;;
18893;SDS011;9579;49.488;8.226;2022-11-15T08:20:17;11.17;;;10.07;;
18893;SDS011;9579;49.488;8.226;2022-11-15T08:23:05;11.13;;;9.90;;
18893;SDS011;9579;49.488;8.226;2022-11-15T08:25:58;10.13;;;9.23;;
18893;SDS011;9579;49.488;8.226;2022-11-15T08:28:45;10.47;;;9.57;;
18893;SDS011;9579;49.488;8.226;2022-11-15T08:31:32;10.87;;;9.97;;
18893;SDS011;9579;49.488;8.226;2022-11-15T08:34:19;10.77;;;9.77;;
18893;SDS011;9579;49.488;8.226;2022-11-15T08:37:08;10.50;;;9.60;;
18893;SDS011;9579;49.488;8.226;2022-11-15T08:39:55;10.10;;;9.20;;
18893;SDS011;9579;49.488;8.226;2022-11-15T08:42:42;13.27;;;11.87;;
18893;SDS011;9579;49.488;8.226;2022-11-15T08:45:33;12.57;;;11.03;;
18893;SDS011;9579;49.488;8.226;2022-11-15T08:48:21;10.37;;;9.47;;
18893;SDS011;9579;49.488;8.226;2022-11-15T08:51:08;9.47;;;8.53;;
18893;SDS011;9579;49.488;8.226;2022-11-15T08:53:57;10.33;;;9.17;;
18893;SDS011;9579;49.488;8.226;2022-11-15T08:56:44;9.80;;;8.90;;
18893;SDS011;9579;49.488;8.226;2022-11-15T08:59:31;8.73;;;7.83;;
18893;SDS011;9579;49.488;8.226;2022-11-15T09:02:18;7.90;;;7.20;;
18893;SDS011;9579;49.488;8.226;2022-11-15T09:05:05;7.73;;;7.10;;
18893;SDS011;9579;49.488;8.226;2022-11-15T09:08:02;7.93;;;7.13;;
18893;SDS011;9579;49.488;8.226;2022-11-15T09:10:50;7.33;;;6.67;;
18893;SDS011;9579;49.488;8.226;2022-11-15T09:13:38;7.63;;;6.93;;
18893;SDS011;9579;49.488;8.226;2022-11-15T09:16:25;8.40;;;6.63;;
18893;SDS011;9579;49.488;8.226;2022-11-15T09:19:12;7.20;;;6.60;;
18893;SDS011;9579;49.488;8.226;2022-11-15T09:22:00;7.30;;;6.70;;
18893;SDS011;9579;49.488;8.226;2022-11-15T09:24:47;7.10;;;6.47;;
18893;SDS011;9579;49.488;8.226;2022-11-15T09:27:35;7.13;;;6.53;;
18893;SDS011;9579;49.488;8.226;2022-11-15T09:30:22;7.03;;;6.43;;
18893;SDS011;9579;49.488;8.226;2022-11-15T09:33:10;8.10;;;7.30;;
18893;SDS011;9579;49.488;8.226;2022-11-15T09:36:01;7.40;;;6.70;;
18893;SDS011;9579;49.488;8.226;2022-11-15T09:38:49;7.60;;;7.00;;
18893;SDS011;9579;49.488;8.226;2022-11-15T09:41:50;7.60;;;6.90;;
18893;SDS011;9579;49.488;8.226;2022-11-15T09:45:03;8.27;;;7.47;;
18893;SDS011;9579;49.488;8.226;2022-11-15T09:48:04;8.00;;;7.20;;
18893;SDS011;9579;49.488;8.226;2022-11-15T09:51:06;7.13;;;6.53;;
18893;SDS011;9579;49.488;8.226;2022-11-15T09:54:03;7.97;;;7.27;;
18893;SDS011;9579;49.488;8.226;2022-11-15T09:56:56;7.40;;;6.70;;
18893;SDS011;9579;49.488;8.226;2022-11-15T10:00:00;7.53;;;6.83;;
18893;SDS011;9579;49.488;8.226;2022-11-15T10:03:06;7.63;;;6.97;;
18893;SDS011;9579;49.488;8.226;2022-11-15T10:05:57;8.87;;;8.07;;
18893;SDS011;9579;49.488;8.226;2022-11-15T10:08:50;7.30;;;6.70;;
18893;SDS011;9579;49.488;8.226;2022-11-15T10:11:41;8.70;;;7.90;;
18893;SDS011;9579;49.488;8.226;2022-11-15T10:14:29;8.53;;;7.73;;
18893;SDS011;9579;49.488;8.226;2022-11-15T10:17:21;8.60;;;7.90;;
18893;SDS011;9579;49.488;8.226;2022-11-15T10:20:22;9.80;;;8.73;;
18893;SDS011;9579;49.488;8.226;2022-11-15T10:23:10;10.27;;;9.27;;
18893;SDS011;9579;49.488;8.226;2022-11-15T10:26:00;9.20;;;8.40;;
18893;SDS011;9579;49.488;8.226;2022-11-15T10:28:53;9.53;;;8.60;;
18893;SDS011;9579;49.488;8.226;2022-11-15T10:31:40;11.13;;;9.87;;
18893;SDS011;9579;49.488;8.226;2022-11-15T10:34:29;9.70;;;8.77;;
18893;SDS011;9579;49.488;8.226;2022-11-15T10:37:27;9.63;;;8.70;;
18893;SDS011;9579;49.488;8.226;2022-11-15T10:40:16;10.67;;;9.77;;
18893;SDS011;9579;49.488;8.226;2022-11-15T10:43:12;10.97;;;9.87;;
18893;SDS011;9579;49.488;8.226;2022-11-15T10:46:05;10.10;;;9.20;;
18893;SDS011;9579;49.488;8.226;2022-11-15T10:49:11;10.10;;;9.10;;
18893;SDS011;9579;49.488;8.226;2022-11-15T10:52:02;9.60;;;8.70;;
18893;SDS011;9579;49.488;8.226;2022-11-15T10:55:00;10.73;;;9.73;;
18893;SDS011;9579;49.488;8.226;2022-11-15T10:57:50;10.43;;;9.30;;
18893;SDS011;9579;49.488;8.226;2022-11-15T11:00:39;9.10;;;8.20;;
18893;SDS011;9579;49.488;8.226;2022-11-15T11:03:28;10.53;;;9.63;;
18893;SDS011;9579;49.488;8.226;2022-11-15T11:06:17;8.70;;;8.00;;
18893;SDS011;9579;49.488;8.226;2022-11-15T11:09:08;10.07;;;9.17;;
18893;SDS011;9579;49.488;8.226;2022-11-15T11:12:10;9.43;;;8.63;;
18893;SDS011;9579;49.488;8.226;2022-11-15T11:14:58;8.87;;;8.00;;
18893;SDS011;9579;49.488;8.226;2022-11-15T11:17:51;8.73;;;8.03;;
18893;SDS011;9579;49.488;8.226;2022-11-15T11:20:49;12.70;;;9.67;;
18893;SDS011;9579;49.488;8.226;2022-11-15T11:23:45;9.33;;;8.53;;
18893;SDS011;9579;49.488;8.226;2022-11-15T11:26:42;11.80;;;10.73;;
18893;SDS011;9579;49.488;8.226;2022-11-15T11:29:36;9.10;;;8.23;;
18893;SDS011;9579;49.488;8.226;2022-11-15T11:32:42;8.33;;;7.53;;
18893;SDS011;9579;49.488;8.226;2022-11-15T11:35:39;8.70;;;7.90;;
18893;SDS011;9579;49.488;8.226;2022-11-15T11:38:52;8.73;;;7.93;;
18893;SDS011;9579;49.488;8.226;2022-11-15T11:41:55;8.57;;;7.77;;
18893;SDS011;9579;49.488;8.226;2022-11-15T11:44:51;8.37;;;7.67;;
18893;SDS011;9579;49.488;8.226;2022-11-15T11:47:46;8.50;;;7.70;;
18893;SDS011;9579;49.488;8.226;2022-11-15T11:50:35;7.57;;;6.97;;
18893;SDS011;9579;49.488;8.226;2022-11-15T11:53:25;6.93;;;6.33;;
18893;SDS011;9579;49.488;8.226;2022-11-15T11:56:22;7.83;;;7.13;;
18893;SDS011;9579;49.488;8.226;2022-11-15T11:59:16;7.00;;;6.40;;
18893;SDS011;9579;49.488;8.226;2022-11-15T12:02:12;7.50;;;6.67;;
18893;SDS011;9579;49.488;8.226;2022-11-15T12:05:11;7.17;;;6.57;;
18893;SDS011;9579;49.488;8.226;2022-11-15T12:08:03;6.77;;;6.07;;
18893;SDS011;9579;49.488;8.226;2022-11-15T12:11:07;6.97;;;6.37;;
18893;SDS011;9579;49.488;8.226;2022-11-15T12:14:00;7.23;;;6.57;;
18893;SDS011;9579;49.488;8.226;2022-11-15T12:16:51;7.00;;;6.40;;
18893;SDS011;9579;49.488;8.226;2022-11-15T12:19:38;7.38;;;6.60;;
18893;SDS011;9579;49.488;8.226;2022-11-15T12:22:32;6.03;;;5.53;;
18893;SDS011;9579;49.488;8.226;2022-11-15T12:25:26;6.43;;;5.93;;
18893;SDS011;9579;49.488;8.226;2022-11-15T12:28:17;6.93;;;6.33;;
18893;SDS011;9579;49.488;8.226;2022-11-15T12:31:13;6.18;;;5.57;;
18893;SDS011;9579;49.488;8.226;2022-11-15T12:34:04;6.07;;;5.57;;
18893;SDS011;9579;49.488;8.226;2022-11-15T12:41:11;5.70;;;4.87;;
18893;SDS011;9579;49.488;8.226;2022-11-15T12:44:02;5.37;;;4.70;;
18893;SDS011;9579;49.488;8.226;2022-11-15T12:50:13;4.90;;;4.50;;
18893;SDS011;9579;49.488;8.226;2022-11-15T12:53:25;4.90;;;4.50;;
18893;SDS011;9579;49.488;8.226;2022-11-15T12:56:23;5.05;;;4.10;;
18893;SDS011;9579;49.488;8.226;2022-11-15T12:59:10;4.83;;;4.40;;
18893;SDS011;9579;49.488;8.226;2022-11-15T13:02:17;4.40;;;4.10;;
18893;SDS011;9579;49.488;8.226;2022-11-15T13:08:38;4.03;;;3.70;;
18893;SDS011;9579;49.488;8.226;2022-11-15T13:11:47;4.70;;;4.30;;
18893;SDS011;9579;49.488;8.226;2022-11-15T13:14:39;5.50;;;4.33;;
18893;SDS011;9579;49.488;8.226;2022-11-15T13:17:33;4.70;;;4.30;;
18893;SDS011;9579;49.488;8.226;2022-11-15T13:20:23;4.80;;;4.43;;
18893;SDS011;9579;49.488;8.226;2022-11-15T13:23:13;4.70;;;4.20;;
18893;SDS011;9579;49.488;8.226;2022-11-15T13:26:06;4.75;;;4.35;;
18893;SDS011;9579;49.488;8.226;2022-11-15T13:28:57;5.23;;;4.50;;
18893;SDS011;9579;49.488;8.226;2022-11-15T13:31:46;4.73;;;4.23;;
18893;SDS011;9579;49.488;8.226;2022-11-15T13:34:33;5.67;;;5.27;;
18893;SDS011;9579;49.488;8.226;2022-11-15T13:37:28;4.43;;;4.07;;
18893;SDS011;9579;49.488;8.226;2022-11-15T13:40:22;4.67;;;4.20;;
18893;SDS011;9579;49.488;8.226;2022-11-15T13:43:17;4.90;;;4.30;;
18893;SDS011;9579;49.488;8.226;2022-11-15T13:46:15;4.40;;;4.10;;
18893;SDS011;9579;49.488;8.226;2022-11-15T13:49:04;5.40;;;4.90;;
18893;SDS011;9579;49.488;8.226;2022-11-15T13:51:56;5.43;;;4.93;;
18893;SDS011;9579;49.488;8.226;2022-11-15T13:54:44;4.80;;;4.40;;
18893;SDS011;9579;49.488;8.226;2022-11-15T13:57:35;4.37;;;3.97;;
18893;SDS011;9579;49.488;8.226;2022-11-15T14:00:34;5.10;;;4.60;;
18893;SDS011;9579;49.488;8.226;2022-11-15T14:03:24;4.75;;;4.35;;
18893;SDS011;9579;49.488;8.226;2022-11-15T14:06:14;4.77;;;4.37;;
18893;SDS011;9579;49.488;8.226;2022-11-15T14:09:14;5.40;;;4.90;;
18893;SDS011;9579;49.488;8.226;2022-11-15T14:12:25;5.10;;;4.20;;
18893;SDS011;9579;49.488;8.226;2022-11-15T14:15:19;4.80;;;4.40;;
18893;SDS011;9579;49.488;8.226;2022-11-15T14:21:30;4.67;;;4.27;;
18893;SDS011;9579;49.488;8.226;2022-11-15T14:24:18;5.40;;;4.90;;
18893;SDS011;9579;49.488;8.226;2022-11-15T14:27:16;6.30;;;4.60;;
18893;SDS011;9579;49.488;8.226;2022-11-15T14:30:14;6.30;;;5.77;;
18893;SDS011;9579;49.488;8.226;2022-11-15T14:33:01;5.10;;;4.60;;
18893;SDS011;9579;49.488;8.226;2022-11-15T14:36:04;4.97;;;4.50;;
18893;SDS011;9579;49.488;8.226;2022-11-15T14:38:58;4.47;;;4.07;;
18893;SDS011;9579;49.488;8.226;2022-11-15T14:41:46;4.70;;;4.30;;
18893;SDS011;9579;49.488;8.226;2022-11-15T14:44:33;5.27;;;4.77;;
18893;SDS011;9579;49.488;8.226;2022-11-15T14:47:21;5.20;;;4.70;;
18893;SDS011;9579;49.488;8.226;2022-11-15T14:50:11;4.50;;;4.00;;
18893;SDS011;9579;49.488;8.226;2022-11-15T14:53:00;5.10;;;4.60;;
18893;SDS011;9579;49.488;8.226;2022-11-15T14:55:47;4.50;;;4.10;;
18893;SDS011;9579;49.488;8.226;2022-11-15T14:58:38;4.80;;;4.30;;
18893;SDS011;9579;49.488;8.226;2022-11-15T15:01:25;4.70;;;4.20;;
18893;SDS011;9579;49.488;8.226;2022-11-15T15:04:13;4.70;;;4.30;;
18893;SDS011;9579;49.488;8.226;2022-11-15T15:07:02;4.80;;;4.40;;
18893;SDS011;9579;49.488;8.226;2022-11-15T15:09:51;4.87;;;4.47;;
18893;SDS011;9579;49.488;8.226;2022-11-15T15:12:38;4.60;;;4.20;;
18893;SDS011;9579;49.488;8.226;2022-11-15T15:15:26;4.65;;;4.20;;
18893;SDS011;9579;49.488;8.226;2022-11-15T15:18:17;4.70;;;4.30;;
18893;SDS011;9579;49.488;8.226;2022-11-15T15:21:12;4.30;;;3.90;;
18893;SDS011;9579;49.488;8.226;2022-11-15T15:24:05;4.00;;;3.70;;
18893;SDS011;9579;49.488;8.226;2022-11-15T15:26:56;6.20;;;5.60;;
18893;SDS011;9579;49.488;8.226;2022-11-15T15:29:43;6.10;;;5.60;;
18893;SDS011;9579;49.488;8.226;2022-11-15T15:32:30;5.22;;;4.72;;
18893;SDS011;9579;49.488;8.226;2022-11-15T15:35:18;4.50;;;4.10;;
18893;SDS011;9579;49.488;8.226;2022-11-15T15:38:08;5.17;;;4.70;;
18893;SDS011;9579;49.488;8.226;2022-11-15T15:40:57;5.30;;;4.60;;
18893;SDS011;9579;49.488;8.226;2022-11-15T15:43:46;6.03;;;5.53;;
18893;SDS011;9579;49.488;8.226;2022-11-15T15:46:39;5.13;;;4.60;;
18893;SDS011;9579;49.488;8.226;2022-11-15T15:49:27;4.93;;;4.47;;
18893;SDS011;9579;49.488;8.226;2022-11-15T15:52:14;7.33;;;5.33;;
18893;SDS011;9579;49.488;8.226;2022-11-15T15:55:01;5.80;;;5.20;;
18893;SDS011;9579;49.488;8.226;2022-11-15T15:57:50;5.47;;;4.97;;
18893;SDS011;9579;49.488;8.226;2022-11-15T16:00:38;5.40;;;4.90;;
18893;SDS011;9579;49.488;8.226;2022-11-15T16:03:28;5.17;;;4.70;;
18893;SDS011;9579;49.488;8.226;2022-11-15T16:09:24;25.10;;;22.47;;
18893;SDS011;9579;49.488;8.226;2022-11-15T16:12:25;16.67;;;14.83;;
18893;SDS011;9579;49.488;8.226;2022-11-15T16:15:14;11.17;;;10.17;;
18893;SDS011;9579;49.488;8.226;2022-11-15T16:18:03;8.07;;;7.30;;
18893;SDS011;9579;49.488;8.226;2022-11-15T16:20:54;6.73;;;5.50;;
18893;SDS011;9579;49.488;8.226;2022-11-15T16:23:42;7.50;;;6.80;;
18893;SDS011;9579;49.488;8.226;2022-11-15T16:26:33;8.17;;;7.47;;
18893;SDS011;9579;49.488;8.226;2022-11-15T16:29:22;7.83;;;7.03;;
18893;SDS011;9579;49.488;8.226;2022-11-15T16:32:09;7.90;;;7.20;;
18893;SDS011;9579;49.488;8.226;2022-11-15T16:34:58;7.30;;;6.60;;
18893;SDS011;9579;49.488;8.226;2022-11-15T16:37:45;8.67;;;7.87;;
18893;SDS011;9579;49.488;8.226;2022-11-15T16:40:33;8.20;;;7.50;;
18893;SDS011;9579;49.488;8.226;2022-11-15T16:43:29;7.57;;;6.93;;
18893;SDS011;9579;49.488;8.226;2022-11-15T16:46:16;8.10;;;6.70;;
18893;SDS011;9579;49.488;8.226;2022-11-15T16:49:05;7.30;;;6.60;;
18893;SDS011;9579;49.488;8.226;2022-11-15T16:51:59;7.47;;;6.60;;
18893;SDS011;9579;49.488;8.226;2022-11-15T16:54:46;7.23;;;6.63;;
18893;SDS011;9579;49.488;8.226;2022-11-15T16:57:36;8.90;;;7.90;;
18893;SDS011;9579;49.488;8.226;2022-11-15T17:00:24;9.30;;;8.50;;
18893;SDS011;9579;49.488;8.226;2022-11-15T17:03:29;10.10;;;9.10;;
18893;SDS011;9579;49.488;8.226;2022-11-15T17:06:18;6.95;;;6.35;;
18893;SDS011;9579;49.488;8.226;2022-11-15T17:09:08;6.50;;;5.90;;
18893;SDS011;9579;49.488;8.226;2022-11-15T17:11:58;6.20;;;5.60;;
18893;SDS011;9579;49.488;8.226;2022-11-15T17:14:45;7.23;;;5.67;;
18893;SDS011;9579;49.488;8.226;2022-11-15T17:17:32;10.73;;;9.63;;
18893;SDS011;9579;49.488;8.226;2022-11-15T17:20:20;13.43;;;10.77;;
18893;SDS011;9579;49.488;8.226;2022-11-15T17:23:11;15.97;;;13.10;;
18893;SDS011;9579;49.488;8.226;2022-11-15T17:26:00;14.77;;;12.90;;
18893;SDS011;9579;49.488;8.226;2022-11-15T17:28:53;12.40;;;11.10;;
18893;SDS011;9579;49.488;8.226;2022-11-15T17:31:40;13.40;;;11.40;;
18893;SDS011;9579;49.488;8.226;2022-11-15T17:34:28;13.27;;;11.10;;
18893;SDS011;9579;49.488;8.226;2022-11-15T17:40:08;13.00;;;10.10;;
18893;SDS011;9579;49.488;8.226;2022-11-15T17:42:57;10.47;;;9.37;;
18893;SDS011;9579;49.488;8.226;2022-11-15T17:45:44;10.00;;;9.00;;
18893;SDS011;9579;49.488;8.226;2022-11-15T17:48:34;8.30;;;7.50;;
18893;SDS011;9579;49.488;8.226;2022-11-15T17:51:21;6.97;;;5.77;;
18893;SDS011;9579;49.488;8.226;2022-11-15T17:54:11;6.37;;;5.77;;
18893;SDS011;9579;49.488;8.226;2022-11-15T17:57:03;6.13;;;5.30;;
18893;SDS011;9579;49.488;8.226;2022-11-15T17:59:51;5.47;;;5.03;;
18893;SDS011;9579;49.488;8.226;2022-11-15T18:02:38;6.80;;;5.70;;
18893;SDS011;9579;49.488;8.226;2022-11-15T18:05:25;6.50;;;5.90;;
18893;SDS011;9579;49.488;8.226;2022-11-15T18:08:12;6.63;;;6.03;;
18893;SDS011;9579;49.488;8.226;2022-11-15T18:11:02;6.90;;;6.20;;
18893;SDS011;9579;49.488;8.226;2022-11-15T18:13:54;6.40;;;5.80;;
18893;SDS011;9579;49.488;8.226;2022-11-15T18:16:43;8.10;;;6.43;;
18893;SDS011;9579;49.488;8.226;2022-11-15T18:19:30;8.70;;;7.20;;
18893;SDS011;9579;49.488;8.226;2022-11-15T18:22:18;7.53;;;6.53;;
18893;SDS011;9579;49.488;8.226;2022-11-15T18:25:05;7.13;;;6.47;;
18893;SDS011;9579;49.488;8.226;2022-11-15T18:27:52;7.60;;;7.00;;
18893;SDS011;9579;49.488;8.226;2022-11-15T18:30:39;8.30;;;7.50;;
18893;SDS011;9579;49.488;8.226;2022-11-15T18:33:31;7.37;;;6.70;;
18893;SDS011;9579;49.488;8.226;2022-11-15T18:36:20;7.43;;;6.73;;
18893;SDS011;9579;49.488;8.226;2022-11-15T18:39:08;7.37;;;6.77;;
18893;SDS011;9579;49.488;8.226;2022-11-15T18:42:00;7.77;;;7.07;;
18893;SDS011;9579;49.488;8.226;2022-11-15T18:44:47;8.40;;;7.70;;
18893;SDS011;9579;49.488;8.226;2022-11-15T18:47:34;8.23;;;7.50;;
18893;SDS011;9579;49.488;8.226;2022-11-15T18:50:23;8.03;;;7.30;;
18893;SDS011;9579;49.488;8.226;2022-11-15T18:53:12;7.63;;;6.93;;
18893;SDS011;9579;49.488;8.226;2022-11-15T18:56:01;7.40;;;6.80;;
18893;SDS011;9579;49.488;8.226;2022-11-15T18:58:50;7.20;;;6.60;;
18893;SDS011;9579;49.488;8.226;2022-11-15T19:01:42;7.63;;;6.93;;
18893;SDS011;9579;49.488;8.226;2022-11-15T19:04:33;7.13;;;6.53;;
18893;SDS011;9579;49.488;8.226;2022-11-15T19:07:21;7.43;;;6.73;;
18893;SDS011;9579;49.488;8.226;2022-11-15T19:10:24;7.90;;;7.20;;
18893;SDS011;9579;49.488;8.226;2022-11-15T19:13:11;7.97;;;7.23;;
18893;SDS011;9579;49.488;8.226;2022-11-15T19:16:01;8.23;;;7.53;;
18893;SDS011;9579;49.488;8.226;2022-11-15T19:18:51;7.80;;;7.20;;
18893;SDS011;9579;49.488;8.226;2022-11-15T19:21:39;7.73;;;6.93;;
18893;SDS011;9579;49.488;8.226;2022-11-15T19:24:27;7.73;;;7.13;;
18893;SDS011;9579;49.488;8.226;2022-11-15T19:27:14;7.60;;;6.90;;
18893;SDS011;9579;49.488;8.226;2022-11-15T19:30:01;6.43;;;5.93;;
18893;SDS011;9579;49.488;8.226;2022-11-15T19:32:50;6.23;;;5.70;;
18893;SDS011;9579;49.488;8.226;2022-11-15T19:35:38;6.63;;;6.03;;
18893;SDS011;9579;49.488;8.226;2022-11-15T19:38:25;6.80;;;6.20;;
18893;SDS011;9579;49.488;8.226;2022-11-15T19:41:19;6.10;;;5.60;;
18893;SDS011;9579;49.488;8.226;2022-11-15T19:44:27;6.17;;;5.67;;
18893;SDS011;9579;49.488;8.226;2022-11-15T19:47:14;6.37;;;5.60;;
18893;SDS011;9579;49.488;8.226;2022-11-15T19:50:01;6.40;;;5.80;;
18893;SDS011;9579;49.488;8.226;2022-11-15T19:52:58;6.50;;;5.90;;
18893;SDS011;9579;49.488;8.226;2022-11-15T19:55:52;6.63;;;5.93;;
18893;SDS011;9579;49.488;8.226;2022-11-15T20:02:03;6.67;;;6.03;;
18893;SDS011;9579;49.488;8.226;2022-11-15T20:04:50;6.40;;;5.80;;
18893;SDS011;9579;49.488;8.226;2022-11-15T20:07:39;6.50;;;5.90;;
18893;SDS011;9579;49.488;8.226;2022-11-15T20:10:29;7.50;;;5.73;;
18893;SDS011;9579;49.488;8.226;2022-11-15T20:13:19;6.50;;;5.93;;
18893;SDS011;9579;49.488;8.226;2022-11-15T20:16:08;6.90;;;6.20;;
18893;SDS011;9579;49.488;8.226;2022-11-15T20:18:59;6.63;;;6.03;;
18893;SDS011;9579;49.488;8.226;2022-11-15T20:22:03;6.80;;;6.27;;
18893;SDS011;9579;49.488;8.226;2022-11-15T20:24:50;7.20;;;6.60;;
18893;SDS011;9579;49.488;8.226;2022-11-15T20:27:44;8.30;;;7.60;;
18893;SDS011;9579;49.488;8.226;2022-11-15T20:30:31;8.47;;;7.67;;
18893;SDS011;9579;49.488;8.226;2022-11-15T20:33:20;7.50;;;6.80;;
18893;SDS011;9579;49.488;8.226;2022-11-15T20:36:08;7.53;;;6.93;;
18893;SDS011;9579;49.488;8.226;2022-11-15T20:38:57;8.03;;;7.33;;
18893;SDS011;9579;49.488;8.226;2022-11-15T20:41:44;8.13;;;7.33;;
18893;SDS011;9579;49.488;8.226;2022-11-15T20:44:31;7.93;;;7.30;;
18893;SDS011;9579;49.488;8.226;2022-11-15T20:47:18;8.10;;;7.40;;
18893;SDS011;9579;49.488;8.226;2022-11-15T20:50:07;8.03;;;7.33;;
18893;SDS011;9579;49.488;8.226;2022-11-15T20:52:55;8.23;;;7.53;;
18893;SDS011;9579;49.488;8.226;2022-11-15T20:55:43;8.27;;;7.57;;
18893;SDS011;9579;49.488;8.226;2022-11-15T20:58:33;8.17;;;7.40;;
18893;SDS011;9579;49.488;8.226;2022-11-15T21:01:20;9.10;;;8.30;;
18893;SDS011;9579;49.488;8.226;2022-11-15T21:04:08;9.50;;;8.70;;
18893;SDS011;9579;49.488;8.226;2022-11-15T21:06:57;8.77;;;7.93;;
18893;SDS011;9579;49.488;8.226;2022-11-15T21:09:44;35.03;;;31.33;;
18893;SDS011;9579;49.488;8.226;2022-11-15T21:13:05;15.53;;;14.13;;
18893;SDS011;9579;49.488;8.226;2022-11-15T21:15:54;12.40;;;11.27;;
18893;SDS011;9579;49.488;8.226;2022-11-15T21:18:41;11.07;;;9.97;;
18893;SDS011;9579;49.488;8.226;2022-11-15T21:21:28;9.93;;;8.93;;
18893;SDS011;9579;49.488;8.226;2022-11-15T21:24:17;9.70;;;8.80;;
18893;SDS011;9579;49.488;8.226;2022-11-15T21:27:05;9.37;;;8.47;;
18893;SDS011;9579;49.488;8.226;2022-11-15T21:29:52;8.93;;;8.17;;
18893;SDS011;9579;49.488;8.226;2022-11-15T21:32:39;9.27;;;8.37;;
18893;SDS011;9579;49.488;8.226;2022-11-15T21:35:26;9.10;;;8.30;;
18893;SDS011;9579;49.488;8.226;2022-11-15T21:38:13;9.37;;;8.43;;
18893;SDS011;9579;49.488;8.226;2022-11-15T21:41:02;8.63;;;7.80;;
18893;SDS011;9579;49.488;8.226;2022-11-15T21:43:50;8.83;;;8.03;;
18893;SDS011;9579;49.488;8.226;2022-11-15T21:46:37;8.67;;;7.87;;
18893;SDS011;9579;49.488;8.226;2022-11-15T21:49:24;8.33;;;7.37;;
18893;SDS011;9579;49.488;8.226;2022-11-15T21:52:14;8.40;;;7.63;;
18893;SDS011;9579;49.488;8.226;2022-11-15T21:55:01;8.37;;;7.63;;
18893;SDS011;9579;49.488;8.226;2022-11-15T21:57:49;8.17;;;7.40;;
18893;SDS011;9579;49.488;8.226;2022-11-15T22:00:49;8.07;;;7.37;;
18893;SDS011;9579;49.488;8.226;2022-11-15T22:03:54;8.43;;;7.63;;
18893;SDS011;9579;49.488;8.226;2022-11-15T22:06:41;7.70;;;7.00;;
18893;SDS011;9579;49.488;8.226;2022-11-15T22:09:28;7.97;;;7.27;;
18893;SDS011;9579;49.488;8.226;2022-11-15T22:12:15;8.40;;;7.60;;
18893;SDS011;9579;49.488;8.226;2022-11-15T22:15:04;8.13;;;7.33;;
18893;SDS011;9579;49.488;8.226;2022-11-15T22:17:53;8.63;;;7.83;;
18893;SDS011;9579;49.488;8.226;2022-11-15T22:20:55;8.47;;;7.67;;
18893;SDS011;9579;49.488;8.226;2022-11-15T22:23:43;8.17;;;7.40;;
18893;SDS011;9579;49.488;8.226;2022-11-15T22:26:31;8.00;;;7.30;;
18893;SDS011;9579;49.488;8.226;2022-11-15T22:29:18;8.37;;;7.67;;
18893;SDS011;9579;49.488;8.226;2022-11-15T22:32:07;8.60;;;7.77;;
18893;SDS011;9579;49.488;8.226;2022-11-15T22:34:54;9.90;;;8.90;;
18893;SDS011;9579;49.488;8.226;2022-11-15T22:37:41;9.17;;;8.10;;
18893;SDS011;9579;49.488;8.226;2022-11-15T22:40:28;9.20;;;8.23;;
18893;SDS011;9579;49.488;8.226;2022-11-15T22:43:19;8.77;;;7.97;;
18893;SDS011;9579;49.488;8.226;2022-11-15T22:46:08;9.10;;;8.30;;
18893;SDS011;9579;49.488;8.226;2022-11-15T22:48:57;9.10;;;8.23;;
18893;SDS011;9579;49.488;8.226;2022-11-15T22:51:44;9.70;;;8.87;;
18893;SDS011;9579;49.488;8.226;2022-11-15T22:54:31;9.63;;;8.73;;
18893;SDS011;9579;49.488;8.226;2022-11-15T22:57:18;9.27;;;8.43;;
18893;SDS011;9579;49.488;8.226;2022-11-15T23:00:07;9.30;;;8.47;;
18893;SDS011;9579;49.488;8.226;2022-11-15T23:02:56;10.63;;;9.63;;
18893;SDS011;9579;49.488;8.226;2022-11-15T23:05:45;9.93;;;9.00;;
18893;SDS011;9579;49.488;8.226;2022-11-15T23:08:33;9.30;;;8.40;;
18893;SDS011;9579;49.488;8.226;2022-11-15T23:11:21;9.40;;;8.50;;
18893;SDS011;9579;49.488;8.226;2022-11-15T23:14:25;9.47;;;8.57;;
18893;SDS011;9579;49.488;8.226;2022-11-15T23:17:12;10.70;;;9.70;;
18893;SDS011;9579;49.488;8.226;2022-11-15T23:20:00;10.67;;;9.67;;
18893;SDS011;9579;49.488;8.226;2022-11-15T23:22:49;10.60;;;9.60;;
18893;SDS011;9579;49.488;8.226;2022-11-15T23:25:35;9.90;;;9.00;;
18893;SDS011;9579;49.488;8.226;2022-11-15T23:28:22;9.13;;;8.33;;
